sensor_id;sensor_type;location;lat;lon;timestamp;pressure;altitude;pressure_sealevel;temperature;humidity
47883;BME280;37739;50.350;7.578;2022-10-28T00:00:23;100299.63;;;15.80;90.30
47883;BME280;37739;50.350;7.578;2022-10-28T00:02:53;100288.38;;;15.78;90.43
47883;BME280;37739;50.350;7.578;2022-10-28T00:05:18;100286.56;;;15.76;90.70
47883;BME280;37739;50.350;7.578;2022-10-28T00:07:44;100278.78;;;15.74;90.60
47883;BME280;37739;50.350;7.578;2022-10-28T00:10:09;100279.63;;;15.73;90.38
47883;BME280;37739;50.350;7.578;2022-10-28T00:12:35;100283.00;;;15.70;90.69
47883;BME280;37739;50.350;7.578;2022-10-28T00:15:02;100286.41;;;15.69;90.65
47883;BME280;37739;50.350;7.578;2022-10-28T00:17:27;100293.28;;;15.69;90.55
47883;BME280;37739;50.350;7.578;2022-10-28T00:19:53;100288.13;;;15.69;90.60
47883;BME280;37739;50.350;7.578;2022-10-28T00:22:20;100289.13;;;15.74;90.17
47883;BME280;37739;50.350;7.578;2022-10-28T00:24:48;100288.34;;;15.77;90.13
47883;BME280;37739;50.350;7.578;2022-10-28T00:27:16;100284.13;;;15.80;89.93
47883;BME280;37739;50.350;7.578;2022-10-28T00:29:41;100280.66;;;15.81;89.76
47883;BME280;37739;50.350;7.578;2022-10-28T00:32:06;100270.28;;;15.78;90.14
47883;BME280;37739;50.350;7.578;2022-10-28T00:34:32;100261.53;;;15.73;90.38
47883;BME280;37739;50.350;7.578;2022-10-28T00:36:57;100261.38;;;15.68;90.82
47883;BME280;37739;50.350;7.578;2022-10-28T00:39:27;100250.91;;;15.64;90.65
47883;BME280;37739;50.350;7.578;2022-10-28T00:41:58;100249.09;;;15.60;91.04
47883;BME280;37739;50.350;7.578;2022-10-28T00:44:51;100242.16;;;15.59;91.05
47883;BME280;37739;50.350;7.578;2022-10-28T00:47:31;100245.53;;;15.55;91.21
47883;BME280;37739;50.350;7.578;2022-10-28T00:50:05;100249.00;;;15.57;91.32
47883;BME280;37739;50.350;7.578;2022-10-28T00:52:34;100250.69;;;15.53;91.15
47883;BME280;37739;50.350;7.578;2022-10-28T00:55:01;100241.88;;;15.46;91.42
47883;BME280;37739;50.350;7.578;2022-10-28T00:57:30;100244.44;;;15.45;91.94
47883;BME280;37739;50.350;7.578;2022-10-28T00:59:59;100248.78;;;15.46;91.78
47883;BME280;37739;50.350;7.578;2022-10-28T01:02:26;100266.19;;;15.53;92.12
47883;BME280;37739;50.350;7.578;2022-10-28T01:04:51;100280.03;;;15.55;92.00
47883;BME280;37739;50.350;7.578;2022-10-28T01:07:17;100273.19;;;15.59;91.40
47883;BME280;37739;50.350;7.578;2022-10-28T01:09:43;100277.63;;;15.63;91.38
47883;BME280;37739;50.350;7.578;2022-10-28T01:23:47;100254.75;;;15.78;89.85
47883;BME280;37739;50.350;7.578;2022-10-28T01:29:25;100249.25;;;15.66;91.01
47883;BME280;37739;50.350;7.578;2022-10-28T01:31:56;100244.06;;;15.66;90.62
47883;BME280;37739;50.350;7.578;2022-10-28T01:34:35;100237.16;;;15.65;90.53
47883;BME280;37739;50.350;7.578;2022-10-28T01:45:46;100222.50;;;15.65;90.28
47883;BME280;37739;50.350;7.578;2022-10-28T01:48:18;100215.53;;;15.61;90.64
47883;BME280;37739;50.350;7.578;2022-10-28T01:50:59;100210.22;;;15.57;90.77
47883;BME280;37739;50.350;7.578;2022-10-28T01:53:30;100210.03;;;15.49;91.27
47883;BME280;37739;50.350;7.578;2022-10-28T01:56:02;100204.88;;;15.49;91.20
47883;BME280;37739;50.350;7.578;2022-10-28T01:58:30;100190.25;;;15.49;91.27
47883;BME280;37739;50.350;7.578;2022-10-28T02:00:58;100202.38;;;15.52;91.02
47883;BME280;37739;50.350;7.578;2022-10-28T02:03:26;100219.53;;;15.48;91.30
47883;BME280;37739;50.350;7.578;2022-10-28T02:05:56;100217.59;;;15.40;91.78
47883;BME280;37739;50.350;7.578;2022-10-28T02:08:55;100221.97;;;15.42;91.95
47883;BME280;37739;50.350;7.578;2022-10-28T02:11:58;100205.78;;;15.49;91.42
47883;BME280;37739;50.350;7.578;2022-10-28T02:19:55;100190.53;;;15.62;90.56
47883;BME280;37739;50.350;7.578;2022-10-28T02:22:57;100200.00;;;15.61;90.51
47883;BME280;37739;50.350;7.578;2022-10-28T02:25:32;100196.56;;;15.61;90.49
47883;BME280;37739;50.350;7.578;2022-10-28T02:28:05;100189.69;;;15.63;90.53
47883;BME280;37739;50.350;7.578;2022-10-28T02:30:36;100187.94;;;15.62;90.50
47883;BME280;37739;50.350;7.578;2022-10-28T02:33:11;100183.63;;;15.61;90.43
47883;BME280;37739;50.350;7.578;2022-10-28T02:38:15;100173.38;;;15.65;90.68
47883;BME280;37739;50.350;7.578;2022-10-28T02:40:47;100175.97;;;15.65;90.38
47883;BME280;37739;50.350;7.578;2022-10-28T02:43:16;100179.38;;;15.64;90.28
47883;BME280;37739;50.350;7.578;2022-10-28T02:45:47;100171.66;;;15.66;90.18
47883;BME280;37739;50.350;7.578;2022-10-28T02:48:21;100170.88;;;15.68;89.74
47883;BME280;37739;50.350;7.578;2022-10-28T02:50:57;100159.66;;;15.69;89.93
47883;BME280;37739;50.350;7.578;2022-10-28T02:53:31;100169.94;;;15.66;90.04
47883;BME280;37739;50.350;7.578;2022-10-28T02:56:01;100157.00;;;15.66;89.99
47883;BME280;37739;50.350;7.578;2022-10-28T02:58:28;100163.09;;;15.68;89.83
47883;BME280;37739;50.350;7.578;2022-10-28T03:01:06;100160.53;;;15.70;89.56
47883;BME280;37739;50.350;7.578;2022-10-28T03:03:36;100166.59;;;15.70;89.53
47883;BME280;37739;50.350;7.578;2022-10-28T03:06:02;100164.03;;;15.72;89.24
47883;BME280;37739;50.350;7.578;2022-10-28T03:08:27;100166.69;;;15.74;89.16
47883;BME280;37739;50.350;7.578;2022-10-28T03:10:55;100169.38;;;15.78;88.76
47883;BME280;37739;50.350;7.578;2022-10-28T03:13:20;100165.06;;;15.79;88.93
47883;BME280;37739;50.350;7.578;2022-10-28T03:15:48;100180.59;;;15.79;88.90
47883;BME280;37739;50.350;7.578;2022-10-28T03:18:16;100197.88;;;15.81;88.68
47883;BME280;37739;50.350;7.578;2022-10-28T03:20:43;100220.34;;;15.82;88.56
47883;BME280;37739;50.350;7.578;2022-10-28T03:23:11;100222.94;;;15.82;88.67
47883;BME280;37739;50.350;7.578;2022-10-28T03:25:41;100201.38;;;15.83;88.40
47883;BME280;37739;50.350;7.578;2022-10-28T03:28:06;100212.75;;;15.90;88.25
47883;BME280;37739;50.350;7.578;2022-10-28T03:30:35;100205.09;;;15.95;87.85
47883;BME280;37739;50.350;7.578;2022-10-28T03:33:03;100201.66;;;15.96;87.77
47883;BME280;37739;50.350;7.578;2022-10-28T03:35:28;100187.81;;;15.94;87.85
47883;BME280;37739;50.350;7.578;2022-10-28T03:37:54;100195.47;;;15.89;88.08
47883;BME280;37739;50.350;7.578;2022-10-28T03:40:21;100189.31;;;15.82;88.46
47883;BME280;37739;50.350;7.578;2022-10-28T03:42:49;100190.88;;;15.76;88.85
47883;BME280;37739;50.350;7.578;2022-10-28T03:45:16;100179.53;;;15.72;88.73
47883;BME280;37739;50.350;7.578;2022-10-28T03:47:42;100187.22;;;15.67;88.92
47883;BME280;37739;50.350;7.578;2022-10-28T03:50:07;100192.38;;;15.67;89.16
47883;BME280;37739;50.350;7.578;2022-10-28T03:52:33;100179.44;;;15.67;89.04
47883;BME280;37739;50.350;7.578;2022-10-28T03:54:58;100184.63;;;15.67;88.89
47883;BME280;37739;50.350;7.578;2022-10-28T03:57:23;100176.91;;;15.69;88.89
47883;BME280;37739;50.350;7.578;2022-10-28T03:59:53;100169.16;;;15.69;88.83
47883;BME280;37739;50.350;7.578;2022-10-28T04:02:18;100170.81;;;15.67;88.90
47883;BME280;37739;50.350;7.578;2022-10-28T04:04:44;100173.28;;;15.61;89.22
47883;BME280;37739;50.350;7.578;2022-10-28T04:07:09;100157.63;;;15.56;89.39
47883;BME280;37739;50.350;7.578;2022-10-28T04:09:37;100154.97;;;15.51;89.75
47883;BME280;37739;50.350;7.578;2022-10-28T04:12:02;100155.69;;;15.46;90.09
47883;BME280;37739;50.350;7.578;2022-10-28T04:14:27;100155.56;;;15.40;90.66
47883;BME280;37739;50.350;7.578;2022-10-28T04:16:53;100148.59;;;15.37;90.96
47883;BME280;37739;50.350;7.578;2022-10-28T04:19:18;100144.31;;;15.39;90.59
47883;BME280;37739;50.350;7.578;2022-10-28T04:21:43;100146.19;;;15.45;90.31
47883;BME280;37739;50.350;7.578;2022-10-28T04:24:11;100143.72;;;15.49;89.93
47883;BME280;37739;50.350;7.578;2022-10-28T04:26:38;100130.84;;;15.52;89.58
47883;BME280;37739;50.350;7.578;2022-10-28T04:29:04;100131.75;;;15.55;89.34
47883;BME280;37739;50.350;7.578;2022-10-28T04:31:29;100127.47;;;15.57;89.20
47883;BME280;37739;50.350;7.578;2022-10-28T04:33:54;100134.38;;;15.56;89.04
47883;BME280;37739;50.350;7.578;2022-10-28T04:36:20;100127.50;;;15.58;88.92
47883;BME280;37739;50.350;7.578;2022-10-28T04:38:45;100123.22;;;15.59;88.80
47883;BME280;37739;50.350;7.578;2022-10-28T04:41:13;100126.75;;;15.62;88.37
47883;BME280;37739;50.350;7.578;2022-10-28T04:43:41;100125.06;;;15.63;88.20
47883;BME280;37739;50.350;7.578;2022-10-28T04:46:07;100128.53;;;15.65;88.15
47883;BME280;37739;50.350;7.578;2022-10-28T04:48:37;100127.63;;;15.64;87.98
47883;BME280;37739;50.350;7.578;2022-10-28T04:51:02;100129.38;;;15.64;87.96
47883;BME280;37739;50.350;7.578;2022-10-28T04:53:28;100132.00;;;15.65;87.80
47883;BME280;37739;50.350;7.578;2022-10-28T04:55:56;100136.25;;;15.63;87.66
47883;BME280;37739;50.350;7.578;2022-10-28T04:58:23;100130.19;;;15.61;87.43
47883;BME280;37739;50.350;7.578;2022-10-28T05:00:48;100127.59;;;15.61;87.71
47883;BME280;37739;50.350;7.578;2022-10-28T05:03:13;100121.56;;;15.61;87.58
47883;BME280;37739;50.350;7.578;2022-10-28T05:05:41;100132.72;;;15.60;87.58
47883;BME280;37739;50.350;7.578;2022-10-28T05:08:06;100126.66;;;15.58;87.54
47883;BME280;37739;50.350;7.578;2022-10-28T05:10:34;100123.16;;;15.56;87.31
47883;BME280;37739;50.350;7.578;2022-10-28T05:13:02;100122.25;;;15.54;87.74
47883;BME280;37739;50.350;7.578;2022-10-28T05:15:27;100120.44;;;15.49;87.95
47883;BME280;37739;50.350;7.578;2022-10-28T05:17:52;100121.22;;;15.47;87.91
47883;BME280;37739;50.350;7.578;2022-10-28T05:20:20;100119.47;;;15.44;87.80
47883;BME280;37739;50.350;7.578;2022-10-28T05:22:55;100120.31;;;15.45;88.03
47883;BME280;37739;50.350;7.578;2022-10-28T05:25:23;100120.41;;;15.48;87.57
47883;BME280;37739;50.350;7.578;2022-10-28T05:27:51;100124.81;;;15.52;87.27
47883;BME280;37739;50.350;7.578;2022-10-28T05:30:17;100121.41;;;15.55;87.18
47883;BME280;37739;50.350;7.578;2022-10-28T05:32:45;100116.25;;;15.56;86.87
47883;BME280;37739;50.350;7.578;2022-10-28T05:35:12;100117.16;;;15.58;86.64
47883;BME280;37739;50.350;7.578;2022-10-28T05:37:40;100122.31;;;15.57;86.69
47883;BME280;37739;50.350;7.578;2022-10-28T05:40:06;100118.00;;;15.56;86.71
47883;BME280;37739;50.350;7.578;2022-10-28T05:42:31;100123.16;;;15.56;86.84
47883;BME280;37739;50.350;7.578;2022-10-28T05:44:57;100123.16;;;15.56;86.58
47883;BME280;37739;50.350;7.578;2022-10-28T05:47:26;100121.44;;;15.56;86.50
47883;BME280;37739;50.350;7.578;2022-10-28T05:49:52;100122.34;;;15.58;86.25
47883;BME280;37739;50.350;7.578;2022-10-28T05:52:17;100125.00;;;15.61;86.22
47883;BME280;37739;50.350;7.578;2022-10-28T05:54:42;100126.75;;;15.62;86.17
47883;BME280;37739;50.350;7.578;2022-10-28T05:57:08;100140.56;;;15.63;86.18
47883;BME280;37739;50.350;7.578;2022-10-28T05:59:33;100135.41;;;15.63;86.21
47883;BME280;37739;50.350;7.578;2022-10-28T06:02:00;100134.50;;;15.61;86.31
47883;BME280;37739;50.350;7.578;2022-10-28T06:04:26;100133.63;;;15.62;86.31
47883;BME280;37739;50.350;7.578;2022-10-28T06:06:55;100143.13;;;15.61;86.25
47883;BME280;37739;50.350;7.578;2022-10-28T06:09:21;100143.97;;;15.62;86.18
47883;BME280;37739;50.350;7.578;2022-10-28T06:11:46;100153.50;;;15.63;86.16
47883;BME280;37739;50.350;7.578;2022-10-28T06:14:11;100150.91;;;15.64;86.06
47883;BME280;37739;50.350;7.578;2022-10-28T06:16:39;100148.25;;;15.60;86.30
47883;BME280;37739;50.350;7.578;2022-10-28T06:19:04;100154.25;;;15.59;86.30
47883;BME280;37739;50.350;7.578;2022-10-28T06:21:34;100150.81;;;15.60;86.13
47883;BME280;37739;50.350;7.578;2022-10-28T06:23:59;100153.47;;;15.61;86.09
47883;BME280;37739;50.350;7.578;2022-10-28T06:26:27;100156.03;;;15.61;86.02
47883;BME280;37739;50.350;7.578;2022-10-28T06:28:52;100166.38;;;15.61;85.93
47883;BME280;37739;50.350;7.578;2022-10-28T06:31:18;100168.97;;;15.61;85.89
47883;BME280;37739;50.350;7.578;2022-10-28T06:33:45;100175.88;;;15.61;85.87
47883;BME280;37739;50.350;7.578;2022-10-28T06:36:10;100175.00;;;15.62;85.81
47883;BME280;37739;50.350;7.578;2022-10-28T06:38:36;100189.69;;;15.63;85.66
47883;BME280;37739;50.350;7.578;2022-10-28T06:41:11;100192.28;;;15.63;85.58
47883;BME280;37739;50.350;7.578;2022-10-28T06:43:38;100195.78;;;15.65;85.49
47883;BME280;37739;50.350;7.578;2022-10-28T06:46:04;100193.19;;;15.66;85.37
47883;BME280;37739;50.350;7.578;2022-10-28T06:48:30;100189.84;;;15.69;85.22
47883;BME280;37739;50.350;7.578;2022-10-28T06:50:56;100187.25;;;15.69;85.05
47883;BME280;37739;50.350;7.578;2022-10-28T06:53:25;100182.00;;;15.66;85.22
47883;BME280;37739;50.350;7.578;2022-10-28T06:55:54;100185.41;;;15.63;85.38
47883;BME280;37739;50.350;7.578;2022-10-28T06:58:20;100181.09;;;15.64;85.52
47883;BME280;37739;50.350;7.578;2022-10-28T07:00:46;100182.00;;;15.66;85.23
47883;BME280;37739;50.350;7.578;2022-10-28T07:03:13;100182.84;;;15.66;85.29
47883;BME280;37739;50.350;7.578;2022-10-28T07:05:41;100180.31;;;15.68;84.96
47883;BME280;37739;50.350;7.578;2022-10-28T07:08:07;100184.66;;;15.69;84.76
47883;BME280;37739;50.350;7.578;2022-10-28T07:10:32;100182.94;;;15.69;84.84
47883;BME280;37739;50.350;7.578;2022-10-28T07:13:00;100179.53;;;15.70;84.63
47883;BME280;37739;50.350;7.578;2022-10-28T07:15:28;100177.75;;;15.69;84.41
47883;BME280;37739;50.350;7.578;2022-10-28T07:17:57;100187.25;;;15.69;84.47
47883;BME280;37739;50.350;7.578;2022-10-28T07:20:26;100190.69;;;15.69;84.58
47883;BME280;37739;50.350;7.578;2022-10-28T07:22:58;100186.44;;;15.71;84.39
47883;BME280;37739;50.350;7.578;2022-10-28T07:25:26;100189.88;;;15.72;84.40
47883;BME280;37739;50.350;7.578;2022-10-28T07:27:51;100195.13;;;15.74;84.40
47883;BME280;37739;50.350;7.578;2022-10-28T07:30:17;100187.41;;;15.75;84.19
47883;BME280;37739;50.350;7.578;2022-10-28T07:32:42;100199.53;;;15.76;84.29
47883;BME280;37739;50.350;7.578;2022-10-28T07:35:07;100198.66;;;15.77;84.41
47883;BME280;37739;50.350;7.578;2022-10-28T07:37:33;100215.09;;;15.79;84.25
47883;BME280;37739;50.350;7.578;2022-10-28T07:40:00;100212.53;;;15.81;84.15
47883;BME280;37739;50.350;7.578;2022-10-28T07:42:27;100209.13;;;15.83;84.09
47883;BME280;37739;50.350;7.578;2022-10-28T07:44:52;100210.94;;;15.86;84.10
47883;BME280;37739;50.350;7.578;2022-10-28T07:47:20;100204.13;;;15.91;84.01
47883;BME280;37739;50.350;7.578;2022-10-28T07:49:46;100208.53;;;15.95;83.55
47883;BME280;37739;50.350;7.578;2022-10-28T07:52:11;100206.88;;;15.99;83.56
47883;BME280;37739;50.350;7.578;2022-10-28T07:54:41;100212.09;;;16.00;83.53
47883;BME280;37739;50.350;7.578;2022-10-28T07:57:08;100216.47;;;16.03;83.42
47883;BME280;37739;50.350;7.578;2022-10-28T07:59:34;100208.78;;;16.06;83.15
47883;BME280;37739;50.350;7.578;2022-10-28T08:02:02;100201.88;;;16.06;83.13
47883;BME280;37739;50.350;7.578;2022-10-28T08:04:31;100200.19;;;16.08;83.23
47883;BME280;37739;50.350;7.578;2022-10-28T08:06:57;100203.69;;;16.10;83.16
47883;BME280;37739;50.350;7.578;2022-10-28T08:09:24;100205.47;;;16.13;83.07
47883;BME280;37739;50.350;7.578;2022-10-28T08:11:56;100217.56;;;16.14;83.11
47883;BME280;37739;50.350;7.578;2022-10-28T08:14:21;100210.75;;;16.18;83.16
47883;BME280;37739;50.350;7.578;2022-10-28T08:16:48;100216.00;;;16.21;83.23
47883;BME280;37739;50.350;7.578;2022-10-28T08:19:14;100208.28;;;16.24;82.97
47883;BME280;37739;50.350;7.578;2022-10-28T08:21:41;100201.38;;;16.23;82.86
47883;BME280;37739;50.350;7.578;2022-10-28T08:24:06;100203.13;;;16.25;82.83
47883;BME280;37739;50.350;7.578;2022-10-28T08:26:32;100206.66;;;16.29;83.03
47883;BME280;37739;50.350;7.578;2022-10-28T08:28:59;100206.75;;;16.32;82.81
47883;BME280;37739;50.350;7.578;2022-10-28T08:31:26;100211.13;;;16.38;82.74
47883;BME280;37739;50.350;7.578;2022-10-28T08:33:52;100218.16;;;16.42;82.23
47883;BME280;37739;50.350;7.578;2022-10-28T08:36:17;100219.09;;;16.47;82.33
47883;BME280;37739;50.350;7.578;2022-10-28T08:38:44;100214.81;;;16.49;82.07
47883;BME280;37739;50.350;7.578;2022-10-28T08:41:27;100212.25;;;16.51;81.74
47883;BME280;37739;50.350;7.578;2022-10-28T08:49:15;100209.78;;;16.57;81.71
47883;BME280;37739;50.350;7.578;2022-10-28T08:51:55;100208.13;;;16.60;81.90
47883;BME280;37739;50.350;7.578;2022-10-28T08:54:33;100202.94;;;16.60;81.90
47883;BME280;37739;50.350;7.578;2022-10-28T08:57:05;100202.16;;;16.64;81.60
47883;BME280;37739;50.350;7.578;2022-10-28T08:59:41;100195.31;;;16.68;81.69
47883;BME280;37739;50.350;7.578;2022-10-28T09:04:45;100194.84;;;16.86;81.14
47883;BME280;37739;50.350;7.578;2022-10-28T09:07:23;100198.44;;;16.94;80.57
47883;BME280;37739;50.350;7.578;2022-10-28T09:09:52;100197.72;;;17.04;80.47
47883;BME280;37739;50.350;7.578;2022-10-28T09:17:58;100185.38;;;17.43;78.65
47883;BME280;37739;50.350;7.578;2022-10-28T09:20:49;100201.16;;;17.57;78.24
47883;BME280;37739;50.350;7.578;2022-10-28T09:23:22;100205.69;;;17.72;77.84
47883;BME280;37739;50.350;7.578;2022-10-28T09:25:52;100204.06;;;17.78;77.76
47883;BME280;37739;50.350;7.578;2022-10-28T09:31:27;100211.06;;;17.84;75.92
47883;BME280;37739;50.350;7.578;2022-10-28T09:36:38;100208.56;;;17.89;76.48
47883;BME280;37739;50.350;7.578;2022-10-28T09:39:27;100212.88;;;17.90;76.33
47883;BME280;37739;50.350;7.578;2022-10-28T09:41:56;100212.09;;;17.94;76.95
47883;BME280;37739;50.350;7.578;2022-10-28T09:44:38;100216.50;;;18.01;76.54
47883;BME280;37739;50.350;7.578;2022-10-28T09:47:14;100209.81;;;18.17;74.99
47883;BME280;37739;50.350;7.578;2022-10-28T09:49:44;100213.50;;;18.37;75.02
47883;BME280;37739;50.350;7.578;2022-10-28T09:52:16;100211.09;;;18.54;74.56
47883;BME280;37739;50.350;7.578;2022-10-28T09:54:48;100212.13;;;18.69;73.63
47883;BME280;37739;50.350;7.578;2022-10-28T09:57:14;100216.53;;;18.77;73.51
47883;BME280;37739;50.350;7.578;2022-10-28T09:59:40;100211.41;;;18.82;73.62
47883;BME280;37739;50.350;7.578;2022-10-28T10:02:30;100216.69;;;18.88;72.20
47883;BME280;37739;50.350;7.578;2022-10-28T10:04:59;100218.47;;;18.95;73.24
47883;BME280;37739;50.350;7.578;2022-10-28T10:07:42;100222.78;;;18.93;72.00
47883;BME280;37739;50.350;7.578;2022-10-28T10:10:16;100228.88;;;18.95;72.71
47883;BME280;37739;50.350;7.578;2022-10-28T10:12:44;100229.88;;;19.08;73.07
47883;BME280;37739;50.350;7.578;2022-10-28T10:15:24;100231.72;;;19.20;71.91
47883;BME280;37739;50.350;7.578;2022-10-28T10:17:51;100224.09;;;19.43;72.20
47883;BME280;37739;50.350;7.578;2022-10-28T10:20:19;100219.81;;;19.51;71.77
47883;BME280;37739;50.350;7.578;2022-10-28T10:22:48;100228.50;;;19.52;71.25
47883;BME280;37739;50.350;7.578;2022-10-28T10:28:01;100218.28;;;19.75;70.22
47883;BME280;37739;50.350;7.578;2022-10-28T10:30:32;100216.59;;;19.83;70.72
47883;BME280;37739;50.350;7.578;2022-10-28T10:33:00;100199.25;;;19.87;70.56
47883;BME280;37739;50.350;7.578;2022-10-28T10:35:30;100188.94;;;20.04;70.48
47883;BME280;37739;50.350;7.578;2022-10-28T10:37:59;100193.31;;;20.20;70.18
47883;BME280;37739;50.350;7.578;2022-10-28T10:40:28;100198.56;;;20.26;69.38
47883;BME280;37739;50.350;7.578;2022-10-28T10:46:16;100202.91;;;20.21;67.83
47883;BME280;37739;50.350;7.578;2022-10-28T10:48:42;100204.63;;;20.20;69.52
47883;BME280;37739;50.350;7.578;2022-10-28T10:51:17;100197.63;;;20.15;69.85
47883;BME280;37739;50.350;7.578;2022-10-28T10:53:53;100196.78;;;20.10;69.23
47883;BME280;37739;50.350;7.578;2022-10-28T10:56:29;100197.63;;;20.09;69.51
47883;BME280;37739;50.350;7.578;2022-10-28T10:59:02;100188.09;;;20.09;69.86
47883;BME280;37739;50.350;7.578;2022-10-28T11:01:33;100187.22;;;20.12;69.21
47883;BME280;37739;50.350;7.578;2022-10-28T11:04:05;100184.66;;;20.24;68.23
47883;BME280;37739;50.350;7.578;2022-10-28T11:06:34;100186.44;;;20.34;69.13
47883;BME280;37739;50.350;7.578;2022-10-28T11:09:27;100175.19;;;20.49;68.40
47883;BME280;37739;50.350;7.578;2022-10-28T11:11:51;100174.31;;;20.55;68.86
47883;BME280;37739;50.350;7.578;2022-10-28T11:14:23;100167.44;;;20.62;68.80
47883;BME280;37739;50.350;7.578;2022-10-28T11:16:54;100163.97;;;20.64;68.65
47883;BME280;37739;50.350;7.578;2022-10-28T11:30:17;100161.34;;;20.63;67.97
47883;BME280;37739;50.350;7.578;2022-10-28T11:43:51;100135.31;;;21.13;66.19
47883;BME280;37739;50.350;7.578;2022-10-28T12:05:17;100107.13;;;22.19;63.32
47883;BME280;37739;50.350;7.578;2022-10-28T12:10:34;100102.84;;;22.08;64.08
47883;BME280;37739;50.350;7.578;2022-10-28T12:16:01;100109.69;;;22.32;62.08
47883;BME280;37739;50.350;7.578;2022-10-28T12:21:14;100115.50;;;22.78;60.79
47883;BME280;37739;50.350;7.578;2022-10-28T12:23:47;100112.66;;;23.02;60.30
47883;BME280;37739;50.350;7.578;2022-10-28T12:28:56;100111.84;;;22.94;58.19
47883;BME280;37739;50.350;7.578;2022-10-28T12:31:29;100121.41;;;23.06;60.42
47883;BME280;37739;50.350;7.578;2022-10-28T12:34:02;100109.03;;;23.19;59.92
47883;BME280;37739;50.350;7.578;2022-10-28T12:39:00;100100.09;;;23.43;59.26
47883;BME280;37739;50.350;7.578;2022-10-28T12:41:45;100095.53;;;23.57;57.26
47883;BME280;37739;50.350;7.578;2022-10-28T12:44:20;100100.69;;;23.65;57.02
47883;BME280;37739;50.350;7.578;2022-10-28T12:49:46;100100.56;;;23.76;56.25
47883;BME280;37739;50.350;7.578;2022-10-28T12:54:56;100099.72;;;23.74;57.20
47883;BME280;37739;50.350;7.578;2022-10-28T12:57:27;100102.38;;;23.70;57.58
47883;BME280;37739;50.350;7.578;2022-10-28T13:00:03;100095.38;;;23.71;56.49
47883;BME280;37739;50.350;7.578;2022-10-28T13:02:34;100098.06;;;23.66;57.65
47883;BME280;37739;50.350;7.578;2022-10-28T13:05:03;100093.75;;;23.64;58.64
47883;BME280;37739;50.350;7.578;2022-10-28T13:07:46;100094.59;;;23.64;56.46
47883;BME280;37739;50.350;7.578;2022-10-28T13:10:41;100090.13;;;23.71;55.23
47883;BME280;37739;50.350;7.578;2022-10-28T13:13:23;100084.84;;;23.76;57.84
47883;BME280;37739;50.350;7.578;2022-10-28T13:16:21;100087.66;;;23.62;55.44
47883;BME280;37739;50.350;7.578;2022-10-28T13:19:00;100088.50;;;23.62;58.55
47883;BME280;37739;50.350;7.578;2022-10-28T13:24:03;100091.28;;;23.48;58.40
47883;BME280;37739;50.350;7.578;2022-10-28T13:26:36;100087.00;;;23.41;58.66
47883;BME280;37739;50.350;7.578;2022-10-28T13:29:15;100096.72;;;23.28;58.28
47883;BME280;37739;50.350;7.578;2022-10-28T13:31:46;100097.69;;;23.20;58.03
47883;BME280;37739;50.350;7.578;2022-10-28T13:34:18;100101.25;;;23.16;57.33
47883;BME280;37739;50.350;7.578;2022-10-28T13:36:58;100105.66;;;23.07;56.91
47883;BME280;37739;50.350;7.578;2022-10-28T13:44:55;100108.38;;;22.95;57.59
47883;BME280;37739;50.350;7.578;2022-10-28T13:52:44;100093.59;;;22.86;58.51
47883;BME280;37739;50.350;7.578;2022-10-28T13:57:42;100100.63;;;22.81;58.00
47883;BME280;37739;50.350;7.578;2022-10-28T14:02:57;100102.41;;;22.79;58.95
47883;BME280;37739;50.350;7.578;2022-10-28T14:08:06;100122.47;;;22.74;58.81
47883;BME280;37739;50.350;7.578;2022-10-28T14:10:35;100116.41;;;22.70;58.57
47883;BME280;37739;50.350;7.578;2022-10-28T14:13:21;100120.78;;;22.71;57.07
47883;BME280;37739;50.350;7.578;2022-10-28T14:15:48;100124.25;;;22.70;58.94
47883;BME280;37739;50.350;7.578;2022-10-28T14:36:19;100135.75;;;22.46;57.63
47883;BME280;37739;50.350;7.578;2022-10-28T14:49:40;100141.09;;;22.23;60.00
47883;BME280;37739;50.350;7.578;2022-10-28T14:52:15;100128.94;;;22.19;60.08
47883;BME280;37739;50.350;7.578;2022-10-28T14:54:54;100139.38;;;22.14;59.58
47883;BME280;37739;50.350;7.578;2022-10-28T14:57:29;100142.03;;;22.10;60.02
47883;BME280;37739;50.350;7.578;2022-10-28T14:59:55;100135.06;;;22.07;60.62
47883;BME280;37739;50.350;7.578;2022-10-28T15:02:26;100139.44;;;22.04;60.65
47883;BME280;37739;50.350;7.578;2022-10-28T15:07:38;100135.13;;;21.95;60.34
47883;BME280;37739;50.350;7.578;2022-10-28T15:10:30;100140.38;;;21.90;59.51
47883;BME280;37739;50.350;7.578;2022-10-28T15:13:01;100146.47;;;21.86;60.64
47883;BME280;37739;50.350;7.578;2022-10-28T15:15:32;100142.16;;;21.81;60.55
47883;BME280;37739;50.350;7.578;2022-10-28T15:18:01;100137.78;;;21.76;60.64
47883;BME280;37739;50.350;7.578;2022-10-28T15:20:44;100125.63;;;21.72;60.69
47883;BME280;37739;50.350;7.578;2022-10-28T15:25:42;100123.03;;;21.65;60.58
47883;BME280;37739;50.350;7.578;2022-10-28T15:28:10;100124.78;;;21.61;60.40
47883;BME280;37739;50.350;7.578;2022-10-28T15:30:37;100127.41;;;21.58;60.73
47883;BME280;37739;50.350;7.578;2022-10-28T15:35:53;100123.94;;;21.51;60.54
47883;BME280;37739;50.350;7.578;2022-10-28T15:38:35;100137.88;;;21.47;60.06
47883;BME280;37739;50.350;7.578;2022-10-28T15:44:00;100144.84;;;21.41;59.43
47883;BME280;37739;50.350;7.578;2022-10-28T15:46:27;100137.84;;;21.38;60.21
47883;BME280;37739;50.350;7.578;2022-10-28T15:48:58;100130.06;;;21.35;59.98
47883;BME280;37739;50.350;7.578;2022-10-28T15:51:24;100141.34;;;21.34;60.44
47883;BME280;37739;50.350;7.578;2022-10-28T15:53:51;100139.63;;;21.30;60.51
47883;BME280;37739;50.350;7.578;2022-10-28T15:56:25;100143.97;;;21.28;59.91
47883;BME280;37739;50.350;7.578;2022-10-28T15:59:14;100144.00;;;21.23;60.02
47883;BME280;37739;50.350;7.578;2022-10-28T16:01:41;100151.81;;;21.20;60.91